createdAt,value
2023-01-19T00:00:55.153Z,99.90
2023-01-19T00:03:22.506Z,99.90
2023-01-19T00:05:49.835Z,99.90
2023-01-19T00:08:17.829Z,99.90
2023-01-19T00:10:48.398Z,99.90
2023-01-19T00:13:16.579Z,99.90
2023-01-19T00:15:44.485Z,99.90
2023-01-19T00:18:11.594Z,99.90
2023-01-19T00:20:40.042Z,99.90
2023-01-19T00:23:08.409Z,99.90
2023-01-19T00:25:36.781Z,99.90
2023-01-19T00:28:03.891Z,99.90
2023-01-19T00:30:31.032Z,99.90
2023-01-19T00:32:58.839Z,99.90
2023-01-19T00:35:26.430Z,99.90
2023-01-19T00:37:53.406Z,99.90
2023-01-19T00:40:20.370Z,99.70
2023-01-19T00:42:48.654Z,98.60
2023-01-19T00:45:26.176Z,98.80
2023-01-19T00:47:57.462Z,98.30
2023-01-19T00:50:26.592Z,98.60
2023-01-19T00:52:55.460Z,98.20
2023-01-19T00:55:23.626Z,98.20
2023-01-19T00:57:50.612Z,98.80
2023-01-19T01:00:22.396Z,97.90
2023-01-19T01:02:52.075Z,96.80
2023-01-19T01:05:20.130Z,97.00
2023-01-19T01:07:50.040Z,97.00
2023-01-19T01:10:25.316Z,96.80
2023-01-19T01:12:57.696Z,97.00
2023-01-19T01:15:39.687Z,97.30
2023-01-19T01:18:06.668Z,97.60
2023-01-19T01:20:34.983Z,97.40
2023-01-19T01:23:02.472Z,97.60
2023-01-19T01:25:31.299Z,97.80
2023-01-19T01:27:58.510Z,97.70
2023-01-19T01:30:25.626Z,97.70
2023-01-19T01:32:52.749Z,97.30
2023-01-19T01:35:23.118Z,97.70
2023-01-19T01:37:50.298Z,98.00
2023-01-19T01:40:19.039Z,98.30
2023-01-19T01:42:46.153Z,98.30
2023-01-19T01:45:22.517Z,97.90
2023-01-19T01:47:52.171Z,97.90
2023-01-19T01:50:30.002Z,97.60
2023-01-19T01:53:06.480Z,97.40
2023-01-19T01:55:38.258Z,96.30
2023-01-19T01:58:08.154Z,95.50
2023-01-19T02:00:53.791Z,95.30
2023-01-19T02:03:23.737Z,93.80
2023-01-19T02:05:52.177Z,92.90
2023-01-19T02:09:00.923Z,93.60
2023-01-19T02:11:48.884Z,94.10
2023-01-19T02:14:16.019Z,93.70
2023-01-19T02:16:43.248Z,93.70
2023-01-19T02:19:16.565Z,94.50
2023-01-19T02:22:01.156Z,94.90
2023-01-19T02:24:29.512Z,95.20
2023-01-19T02:26:58.098Z,95.30
2023-01-19T02:29:26.842Z,94.20
2023-01-19T02:31:56.218Z,94.60
2023-01-19T02:34:23.475Z,93.70
2023-01-19T02:36:57.924Z,93.30
2023-01-19T02:39:35.398Z,93.10
2023-01-19T02:42:19.306Z,92.50
2023-01-19T02:44:50.584Z,92.90
2023-01-19T02:47:17.895Z,93.20
2023-01-19T02:49:45.014Z,92.30
2023-01-19T02:52:18.063Z,92.80
2023-01-19T02:54:51.430Z,92.50
2023-01-19T02:57:27.883Z,93.00
2023-01-19T06:01:37.521Z,86.80
2023-01-19T06:04:06.260Z,87.80
2023-01-19T06:06:33.359Z,87.80
2023-01-19T06:09:00.384Z,88.30
2023-01-19T06:11:27.427Z,87.70
2023-01-19T06:13:54.646Z,87.80
2023-01-19T06:16:22.082Z,88.10
2023-01-19T06:18:49.041Z,88.40
2023-01-19T06:21:16.055Z,88.80
2023-01-19T06:23:43.249Z,89.30
2023-01-19T06:26:10.488Z,89.90
2023-01-19T06:28:37.686Z,90.20
2023-01-19T06:31:04.966Z,90.60
2023-01-19T06:33:32.314Z,91.00
2023-01-19T06:35:59.666Z,91.40
2023-01-19T06:38:28.143Z,91.70
2023-01-19T06:40:58.794Z,92.10
2023-01-19T06:43:26.929Z,92.20
2023-01-19T06:45:54.895Z,91.80
2023-01-19T06:48:22.411Z,91.00
2023-01-19T06:50:50.092Z,90.20
2023-01-19T06:53:17.816Z,89.00
2023-01-19T06:55:44.865Z,88.00
2023-01-19T06:58:12.552Z,87.80
2023-01-19T07:00:39.652Z,87.60
2023-01-19T07:03:07.739Z,87.70
2023-01-19T07:05:40.778Z,87.80
2023-01-19T07:08:07.751Z,87.50
2023-01-19T07:11:24.713Z,87.50
2023-01-19T07:13:22.068Z,87.20
2023-01-19T07:15:50.195Z,86.60
2023-01-19T07:18:17.210Z,85.30
2023-01-19T07:20:46.082Z,85.40
2023-01-19T07:23:13.240Z,84.30
2023-01-19T07:25:40.261Z,82.90
2023-01-19T07:28:07.396Z,83.50
2023-01-19T07:30:34.526Z,83.50
2023-01-19T07:33:02.900Z,82.80
2023-01-19T07:35:30.314Z,82.50
2023-01-19T07:37:57.268Z,82.80
2023-01-19T07:40:24.232Z,82.90
2023-01-19T07:42:52.160Z,84.60
2023-01-19T07:45:20.913Z,84.10
2023-01-19T07:47:49.115Z,82.60
2023-01-19T07:50:18.187Z,81.30
2023-01-19T07:52:45.906Z,82.00
2023-01-19T07:55:13.150Z,81.50
2023-01-19T07:57:40.195Z,81.20
2023-01-19T08:00:09.002Z,81.00
2023-01-19T08:02:37.260Z,81.90
2023-01-19T08:05:04.513Z,82.10
2023-01-19T08:07:32.899Z,81.60
2023-01-19T08:09:59.891Z,80.30
2023-01-19T08:12:27.040Z,81.40
2023-01-19T08:14:53.992Z,81.00
2023-01-19T08:17:20.931Z,79.60
2023-01-19T08:19:48.183Z,80.30
2023-01-19T08:22:15.212Z,79.80
2023-01-19T08:24:42.274Z,80.20
2023-01-19T08:27:15.039Z,80.80
2023-01-19T08:29:42.066Z,81.10
2023-01-19T08:32:09.274Z,81.30
2023-01-19T08:34:36.545Z,81.50
2023-01-19T08:37:03.673Z,79.30
2023-01-19T08:39:30.877Z,78.60
2023-01-19T08:41:59.435Z,77.60
2023-01-19T08:44:27.576Z,77.80
2023-01-19T08:46:55.113Z,78.10
2023-01-19T08:49:22.380Z,79.00
2023-01-19T08:51:49.697Z,80.50
2023-01-19T08:54:18.554Z,80.60
2023-01-19T08:56:45.810Z,80.90
2023-01-19T08:59:14.112Z,80.20
2023-01-19T09:01:41.771Z,80.20
2023-01-19T09:04:08.938Z,80.50
2023-01-19T09:06:36.023Z,79.50
2023-01-19T09:09:03.395Z,78.50
2023-01-19T09:11:30.924Z,79.60
2023-01-19T09:13:57.983Z,78.30
2023-01-19T09:16:27.222Z,78.40
2023-01-19T09:18:54.460Z,78.30
2023-01-19T09:21:21.572Z,79.00
2023-01-19T09:23:49.790Z,79.10
2023-01-19T09:26:16.885Z,78.50
2023-01-19T09:28:44.092Z,78.20
2023-01-19T09:31:11.503Z,78.70
2023-01-19T09:33:38.880Z,79.30
2023-01-19T09:36:06.258Z,78.90
2023-01-19T09:38:34.140Z,78.90
2023-01-19T09:41:01.522Z,80.20
2023-01-19T09:43:49.090Z,78.20
2023-01-19T09:46:22.305Z,78.40
2023-01-19T09:48:54.377Z,76.80
2023-01-19T09:51:26.296Z,75.30
2023-01-19T09:54:29.411Z,75.50
2023-01-19T09:56:56.405Z,77.10
2023-01-19T09:59:31.037Z,75.40
2023-01-19T10:02:03.866Z,74.90
2023-01-19T10:05:02.779Z,75.80
2023-01-19T10:07:53.498Z,73.30
2023-01-19T10:10:28.078Z,70.80
2023-01-19T10:13:22.377Z,70.90
2023-01-19T10:16:12.023Z,72.80
2023-01-19T10:18:47.204Z,71.80
2023-01-19T10:21:35.340Z,72.20
2023-01-19T10:24:07.190Z,71.50
2023-01-19T10:26:44.225Z,71.60
2023-01-19T10:29:38.900Z,70.20
2023-01-19T10:32:13.880Z,69.60
2023-01-19T10:34:41.860Z,69.90
2023-01-19T10:37:18.315Z,70.10
2023-01-19T10:39:55.280Z,70.40
2023-01-19T10:42:22.520Z,71.00
2023-01-19T10:44:50.337Z,69.50
2023-01-19T10:47:23.841Z,70.10
2023-01-19T10:49:51.605Z,73.30
2023-01-19T10:52:40.175Z,71.70
2023-01-19T10:55:23.248Z,71.10
2023-01-19T10:57:53.158Z,70.60
2023-01-19T11:00:40.162Z,70.50
2023-01-19T11:03:22.722Z,69.50
2023-01-19T11:05:50.122Z,69.70
2023-01-19T11:08:37.497Z,69.00
2023-01-19T11:11:08.270Z,67.00
2023-01-19T11:13:40.536Z,68.40
2023-01-19T11:16:28.013Z,68.70
2023-01-19T11:18:57.031Z,67.60
2023-01-19T11:21:27.301Z,69.40
2023-01-19T11:23:57.390Z,71.00
2023-01-19T11:26:40.927Z,70.40
2023-01-19T11:29:21.360Z,72.50
2023-01-19T11:31:49.214Z,73.00
2023-01-19T11:34:22.400Z,74.00
2023-01-19T11:36:58.723Z,75.50
2023-01-19T11:39:28.950Z,75.80
2023-01-19T11:42:01.900Z,76.10
2023-01-19T11:44:36.190Z,75.40
2023-01-19T11:47:13.914Z,76.30
2023-01-19T11:49:58.911Z,75.50
2023-01-19T11:52:41.238Z,75.80
2023-01-19T11:55:13.104Z,75.70
2023-01-19T11:57:46.756Z,75.40
2023-01-19T12:00:29.229Z,75.30
2023-01-19T12:03:03.331Z,75.80
2023-01-19T12:05:34.319Z,74.40
2023-01-19T12:08:06.839Z,74.10
2023-01-19T12:10:38.521Z,75.20
2023-01-19T12:13:05.590Z,74.10
2023-01-19T12:15:38.896Z,75.50
2023-01-19T12:18:12.719Z,73.90
2023-01-19T12:20:39.995Z,72.90
2023-01-19T12:23:32.219Z,72.50
2023-01-19T12:26:27.766Z,71.70
2023-01-19T12:28:58.898Z,72.70
2023-01-19T12:31:26.301Z,71.60
2023-01-19T12:33:53.657Z,74.20
2023-01-19T12:36:29.813Z,73.80
2023-01-19T12:39:01.443Z,74.00
2023-01-19T12:41:39.101Z,74.10
2023-01-19T12:44:12.333Z,73.60
2023-01-19T12:46:50.287Z,72.90
2023-01-19T12:49:44.662Z,73.60
2023-01-19T12:52:36.246Z,74.30
2023-01-19T12:55:03.335Z,74.40
2023-01-19T12:57:39.215Z,73.10
2023-01-19T13:00:32.966Z,74.10
2023-01-19T13:03:08.827Z,73.10
2023-01-19T13:05:38.959Z,72.30
2023-01-19T13:08:06.379Z,70.50
2023-01-19T13:11:05.605Z,71.70
2023-01-19T13:13:37.151Z,70.40
2023-01-19T13:16:19.817Z,72.20
2023-01-19T13:18:48.800Z,71.90
2023-01-19T13:21:40.222Z,72.20
2023-01-19T13:24:09.621Z,73.40
2023-01-19T13:27:07.524Z,75.00
2023-01-19T13:29:37.487Z,76.00
2023-01-19T13:32:13.732Z,77.20
2023-01-19T13:34:44.481Z,76.90
2023-01-19T13:37:23.769Z,77.10
2023-01-19T13:39:53.383Z,77.20
2023-01-19T13:42:38.906Z,78.60
2023-01-19T13:45:26.600Z,78.10
2023-01-19T13:47:55.704Z,78.80
2023-01-19T13:50:25.799Z,79.10
2023-01-19T13:52:55.836Z,79.20
2023-01-19T13:55:24.325Z,79.60
2023-01-19T13:57:52.651Z,79.70
2023-01-19T14:00:33.557Z,80.00
2023-01-19T14:03:15.645Z,81.00
2023-01-19T14:05:44.210Z,81.50
2023-01-19T14:08:14.108Z,81.80
2023-01-19T14:11:05.121Z,82.30
2023-01-19T14:13:35.289Z,83.10
2023-01-19T14:16:08.186Z,83.60
2023-01-19T14:18:36.558Z,84.80
2023-01-19T14:21:06.248Z,85.20
2023-01-19T14:23:58.136Z,85.90
2023-01-19T14:26:46.715Z,86.50
2023-01-19T14:29:27.021Z,87.60
2023-01-19T14:32:13.846Z,88.30
2023-01-19T14:35:04.656Z,88.90
2023-01-19T14:37:34.972Z,89.60
2023-01-19T14:40:17.019Z,90.50
2023-01-19T14:43:03.346Z,90.80
2023-01-19T14:45:39.582Z,92.00
2023-01-19T14:48:17.799Z,92.30
2023-01-19T14:50:57.678Z,93.20
2023-01-19T14:53:30.970Z,94.00
2023-01-19T14:56:02.542Z,93.40
2023-01-19T14:58:32.352Z,94.40
2023-01-19T15:01:00.405Z,95.20
2023-01-19T15:03:44.679Z,96.00
2023-01-19T15:06:18.242Z,96.60
2023-01-19T15:08:46.452Z,96.60
2023-01-19T15:11:22.370Z,97.30
2023-01-19T15:13:50.326Z,97.10
2023-01-19T15:16:17.579Z,97.30
2023-01-19T15:18:44.518Z,97.20
2023-01-19T15:21:20.254Z,97.40
2023-01-19T15:23:50.626Z,97.10
2023-01-19T15:26:20.977Z,97.40
2023-01-19T15:28:51.238Z,97.80
2023-01-19T15:31:23.847Z,97.90
2023-01-19T15:33:51.270Z,98.40
2023-01-19T15:36:20.782Z,98.50
2023-01-19T15:38:50.924Z,98.30
2023-01-19T15:41:30.136Z,98.50
2023-01-19T15:43:57.814Z,98.50
2023-01-19T15:46:26.015Z,98.80
2023-01-19T15:48:54.097Z,98.80
2023-01-19T15:51:23.721Z,98.90
2023-01-19T15:53:50.792Z,98.90
2023-01-19T15:56:26.544Z,99.20
2023-01-19T15:58:54.242Z,99.20
2023-01-19T16:01:24.146Z,99.30
2023-01-19T16:03:51.590Z,99.50
2023-01-19T16:06:18.830Z,99.50
2023-01-19T16:08:46.028Z,99.50
2023-01-19T16:11:15.895Z,99.70
2023-01-19T16:13:46.473Z,99.00
2023-01-19T16:16:20.040Z,99.20
2023-01-19T16:18:47.482Z,99.50
2023-01-19T16:21:14.833Z,98.80
2023-01-19T16:23:42.171Z,99.30
2023-01-19T16:26:28.492Z,98.80
2023-01-19T16:29:08.888Z,98.30
2023-01-19T16:31:37.459Z,98.80
2023-01-19T16:34:04.791Z,98.90
2023-01-19T16:36:33.662Z,98.70
2023-01-19T16:39:03.429Z,99.10
2023-01-19T16:41:30.557Z,99.30
2023-01-19T16:43:58.650Z,99.30
2023-01-19T16:46:28.248Z,99.20
2023-01-19T16:49:00.090Z,99.10
2023-01-19T16:51:27.578Z,98.90
2023-01-19T16:53:54.699Z,99.20
2023-01-19T16:56:21.700Z,99.00
2023-01-19T16:58:48.971Z,98.80
2023-01-19T17:01:20.148Z,98.90
2023-01-19T17:03:47.653Z,99.10
2023-01-19T17:06:18.400Z,98.70
2023-01-19T17:08:45.549Z,98.30
2023-01-19T17:11:20.603Z,98.70
2023-01-19T17:13:56.051Z,98.70
2023-01-19T17:16:24.616Z,99.00
2023-01-19T17:18:52.058Z,99.50
2023-01-19T17:21:20.397Z,99.20
2023-01-19T17:23:49.373Z,98.70
2023-01-19T17:26:17.655Z,98.90
2023-01-19T17:28:45.054Z,98.80
2023-01-19T17:31:17.491Z,98.90
2023-01-19T17:33:46.617Z,98.70
2023-01-19T17:36:16.364Z,98.90
2023-01-19T17:38:43.557Z,98.90
2023-01-19T17:41:22.109Z,98.80
2023-01-19T17:43:52.427Z,99.20
2023-01-19T17:46:23.592Z,99.40
2023-01-19T17:48:59.056Z,99.90
2023-01-19T17:51:27.581Z,99.90
2023-01-19T17:53:54.986Z,99.90
2023-01-19T17:56:27.538Z,99.90
2023-01-19T17:58:54.538Z,99.90
2023-01-19T18:01:23.017Z,99.90
2023-01-19T18:03:50.688Z,99.90
2023-01-19T18:06:17.832Z,99.90
2023-01-19T18:08:46.433Z,99.90
2023-01-19T18:20:51.961Z,99.90
2023-01-19T18:23:19.453Z,99.90
2023-01-19T18:25:46.471Z,99.90
2023-01-19T18:28:13.488Z,99.90
2023-01-19T18:30:40.623Z,99.90
2023-01-19T18:33:07.644Z,99.90
2023-01-19T18:35:34.713Z,99.90
2023-01-19T18:38:01.702Z,99.90
2023-01-19T18:40:28.925Z,99.90
2023-01-19T18:42:55.995Z,99.90
2023-01-19T18:45:23.026Z,99.90
2023-01-19T18:47:50.002Z,99.90
2023-01-19T18:50:20.491Z,99.90
2023-01-19T18:52:48.865Z,99.90
2023-01-19T18:55:15.899Z,99.90
2023-01-19T18:57:43.011Z,99.90
2023-01-19T19:00:11.034Z,99.90
2023-01-19T19:02:38.278Z,99.90
2023-01-19T19:05:05.562Z,99.90
2023-01-19T19:07:32.601Z,99.90
2023-01-19T19:09:59.673Z,99.90
2023-01-19T19:12:26.718Z,99.90
2023-01-19T19:14:53.894Z,99.90
2023-01-19T19:17:21.281Z,99.90
2023-01-19T19:19:49.237Z,99.90
2023-01-19T19:22:16.701Z,99.90
2023-01-19T19:24:43.725Z,99.90
2023-01-19T19:27:14.464Z,99.90
2023-01-19T19:29:42.388Z,99.90
